sensor_id;sensor_type;location;lat;lon;timestamp;P1;durP1;ratioP1;P2;durP2;ratioP2
30133;SDS011;16946;49.984;10.672;2024-03-08T00:00:22;17.70;;;12.57;;
30133;SDS011;16946;49.984;10.672;2024-03-08T00:00:53;18.33;;;13.10;;
30133;SDS011;16946;49.984;10.672;2024-03-08T00:01:23;15.90;;;12.20;;
30133;SDS011;16946;49.984;10.672;2024-03-08T00:01:54;17.17;;;12.67;;
30133;SDS011;16946;49.984;10.672;2024-03-08T00:02:24;16.33;;;12.00;;
30133;SDS011;16946;49.984;10.672;2024-03-08T00:02:55;16.20;;;13.27;;
30133;SDS011;16946;49.984;10.672;2024-03-08T00:03:25;20.83;;;12.30;;
30133;SDS011;16946;49.984;10.672;2024-03-08T00:03:57;14.32;;;12.43;;
30133;SDS011;16946;49.984;10.672;2024-03-08T00:04:27;14.53;;;12.40;;
30133;SDS011;16946;49.984;10.672;2024-03-08T00:04:57;16.37;;;13.37;;
30133;SDS011;16946;49.984;10.672;2024-03-08T00:05:28;19.27;;;12.93;;
30133;SDS011;16946;49.984;10.672;2024-03-08T00:05:58;19.90;;;13.17;;
30133;SDS011;16946;49.984;10.672;2024-03-08T00:06:29;16.37;;;12.53;;
30133;SDS011;16946;49.984;10.672;2024-03-08T00:07:00;14.77;;;12.77;;
30133;SDS011;16946;49.984;10.672;2024-03-08T00:07:30;18.30;;;12.53;;
30133;SDS011;16946;49.984;10.672;2024-03-08T00:08:01;14.37;;;12.10;;
30133;SDS011;16946;49.984;10.672;2024-03-08T00:08:31;17.20;;;12.37;;
30133;SDS011;16946;49.984;10.672;2024-03-08T00:09:02;15.43;;;12.30;;
30133;SDS011;16946;49.984;10.672;2024-03-08T00:09:33;17.33;;;12.83;;
30133;SDS011;16946;49.984;10.672;2024-03-08T00:10:03;20.40;;;13.30;;
30133;SDS011;16946;49.984;10.672;2024-03-08T00:10:35;18.27;;;12.85;;
30133;SDS011;16946;49.984;10.672;2024-03-08T00:11:05;18.27;;;12.43;;
30133;SDS011;16946;49.984;10.672;2024-03-08T00:11:36;15.73;;;12.53;;
30133;SDS011;16946;49.984;10.672;2024-03-08T00:12:07;16.93;;;12.07;;
30133;SDS011;16946;49.984;10.672;2024-03-08T00:12:38;20.57;;;12.67;;
30133;SDS011;16946;49.984;10.672;2024-03-08T00:13:11;15.25;;;12.43;;
30133;SDS011;16946;49.984;10.672;2024-03-08T00:13:42;18.07;;;12.60;;
30133;SDS011;16946;49.984;10.672;2024-03-08T00:14:13;16.77;;;11.68;;
30133;SDS011;16946;49.984;10.672;2024-03-08T00:14:44;19.27;;;13.63;;
30133;SDS011;16946;49.984;10.672;2024-03-08T00:15:15;18.00;;;12.23;;
30133;SDS011;16946;49.984;10.672;2024-03-08T00:15:46;17.65;;;12.75;;
30133;SDS011;16946;49.984;10.672;2024-03-08T00:16:17;13.63;;;11.70;;
30133;SDS011;16946;49.984;10.672;2024-03-08T00:16:49;16.60;;;12.95;;
30133;SDS011;16946;49.984;10.672;2024-03-08T00:17:22;20.60;;;13.20;;
30133;SDS011;16946;49.984;10.672;2024-03-08T00:17:53;16.90;;;13.20;;
30133;SDS011;16946;49.984;10.672;2024-03-08T00:18:23;18.57;;;13.70;;
30133;SDS011;16946;49.984;10.672;2024-03-08T00:18:54;21.20;;;14.00;;
30133;SDS011;16946;49.984;10.672;2024-03-08T00:19:24;19.00;;;13.30;;
30133;SDS011;16946;49.984;10.672;2024-03-08T00:19:55;21.50;;;14.53;;
30133;SDS011;16946;49.984;10.672;2024-03-08T00:20:25;18.07;;;12.87;;
30133;SDS011;16946;49.984;10.672;2024-03-08T00:20:56;19.83;;;12.43;;
30133;SDS011;16946;49.984;10.672;2024-03-08T00:21:26;15.60;;;12.53;;
30133;SDS011;16946;49.984;10.672;2024-03-08T00:21:57;17.97;;;13.00;;
30133;SDS011;16946;49.984;10.672;2024-03-08T00:22:27;17.57;;;13.37;;
30133;SDS011;16946;49.984;10.672;2024-03-08T00:23:00;23.00;;;14.00;;
30133;SDS011;16946;49.984;10.672;2024-03-08T00:23:31;20.47;;;12.77;;
30133;SDS011;16946;49.984;10.672;2024-03-08T00:24:03;17.35;;;12.63;;
30133;SDS011;16946;49.984;10.672;2024-03-08T00:24:34;20.53;;;13.10;;
30133;SDS011;16946;49.984;10.672;2024-03-08T00:25:05;22.13;;;13.60;;
30133;SDS011;16946;49.984;10.672;2024-03-08T00:25:38;16.35;;;12.73;;
30133;SDS011;16946;49.984;10.672;2024-03-08T00:26:09;18.57;;;13.87;;
30133;SDS011;16946;49.984;10.672;2024-03-08T00:26:39;22.57;;;13.37;;
30133;SDS011;16946;49.984;10.672;2024-03-08T00:27:11;13.85;;;12.35;;
30133;SDS011;16946;49.984;10.672;2024-03-08T00:27:42;16.77;;;12.97;;
30133;SDS011;16946;49.984;10.672;2024-03-08T00:28:13;19.60;;;13.40;;
30133;SDS011;16946;49.984;10.672;2024-03-08T00:28:45;18.75;;;13.10;;
30133;SDS011;16946;49.984;10.672;2024-03-08T00:29:15;16.60;;;13.43;;
30133;SDS011;16946;49.984;10.672;2024-03-08T00:29:46;22.87;;;14.10;;
30133;SDS011;16946;49.984;10.672;2024-03-08T00:30:17;17.07;;;12.83;;
30133;SDS011;16946;49.984;10.672;2024-03-08T00:30:47;16.90;;;12.73;;
30133;SDS011;16946;49.984;10.672;2024-03-08T00:31:18;18.00;;;12.67;;
30133;SDS011;16946;49.984;10.672;2024-03-08T00:31:48;19.67;;;13.60;;
30133;SDS011;16946;49.984;10.672;2024-03-08T00:32:19;20.87;;;14.87;;
30133;SDS011;16946;49.984;10.672;2024-03-08T00:32:49;20.57;;;14.23;;
30133;SDS011;16946;49.984;10.672;2024-03-08T00:33:20;16.23;;;12.43;;
30133;SDS011;16946;49.984;10.672;2024-03-08T00:33:51;21.23;;;13.80;;
30133;SDS011;16946;49.984;10.672;2024-03-08T00:34:22;20.10;;;13.50;;
30133;SDS011;16946;49.984;10.672;2024-03-08T00:34:53;18.87;;;12.93;;
30133;SDS011;16946;49.984;10.672;2024-03-08T00:35:27;18.60;;;13.95;;
30133;SDS011;16946;49.984;10.672;2024-03-08T00:35:57;19.03;;;13.47;;
30133;SDS011;16946;49.984;10.672;2024-03-08T00:36:28;19.73;;;13.47;;
30133;SDS011;16946;49.984;10.672;2024-03-08T00:37:00;19.60;;;13.80;;
30133;SDS011;16946;49.984;10.672;2024-03-08T00:37:30;19.40;;;15.17;;
30133;SDS011;16946;49.984;10.672;2024-03-08T00:38:01;16.27;;;12.93;;
30133;SDS011;16946;49.984;10.672;2024-03-08T00:38:32;19.75;;;14.13;;
30133;SDS011;16946;49.984;10.672;2024-03-08T00:39:04;21.40;;;13.85;;
30133;SDS011;16946;49.984;10.672;2024-03-08T00:39:36;19.17;;;14.15;;
30133;SDS011;16946;49.984;10.672;2024-03-08T00:40:07;18.87;;;12.93;;
30133;SDS011;16946;49.984;10.672;2024-03-08T00:40:39;18.73;;;13.88;;
30133;SDS011;16946;49.984;10.672;2024-03-08T00:41:10;17.08;;;14.07;;
30133;SDS011;16946;49.984;10.672;2024-03-08T00:41:41;18.37;;;13.97;;
30133;SDS011;16946;49.984;10.672;2024-03-08T00:42:11;20.07;;;14.17;;
30133;SDS011;16946;49.984;10.672;2024-03-08T00:42:42;16.80;;;13.37;;
30133;SDS011;16946;49.984;10.672;2024-03-08T00:43:13;19.52;;;13.75;;
30133;SDS011;16946;49.984;10.672;2024-03-08T00:43:45;16.45;;;13.45;;
30133;SDS011;16946;49.984;10.672;2024-03-08T00:44:17;19.08;;;14.02;;
30133;SDS011;16946;49.984;10.672;2024-03-08T00:44:48;18.37;;;14.33;;
30133;SDS011;16946;49.984;10.672;2024-03-08T00:45:20;17.65;;;13.90;;
30133;SDS011;16946;49.984;10.672;2024-03-08T00:45:53;21.83;;;14.65;;
30133;SDS011;16946;49.984;10.672;2024-03-08T00:46:23;19.37;;;13.67;;
30133;SDS011;16946;49.984;10.672;2024-03-08T00:46:54;21.60;;;13.93;;
30133;SDS011;16946;49.984;10.672;2024-03-08T00:47:25;18.57;;;14.03;;
30133;SDS011;16946;49.984;10.672;2024-03-08T00:47:55;20.03;;;14.47;;
30133;SDS011;16946;49.984;10.672;2024-03-08T00:48:26;18.60;;;13.67;;
30133;SDS011;16946;49.984;10.672;2024-03-08T00:48:56;20.33;;;14.30;;
30133;SDS011;16946;49.984;10.672;2024-03-08T00:49:28;15.35;;;13.43;;
30133;SDS011;16946;49.984;10.672;2024-03-08T00:49:58;15.30;;;13.33;;
30133;SDS011;16946;49.984;10.672;2024-03-08T00:50:29;16.43;;;13.27;;
30133;SDS011;16946;49.984;10.672;2024-03-08T00:51:00;17.63;;;13.07;;
30133;SDS011;16946;49.984;10.672;2024-03-08T00:51:32;17.95;;;13.25;;
30133;SDS011;16946;49.984;10.672;2024-03-08T00:52:02;17.33;;;12.50;;
30133;SDS011;16946;49.984;10.672;2024-03-08T00:52:37;17.45;;;13.95;;
30133;SDS011;16946;49.984;10.672;2024-03-08T00:53:07;20.65;;;13.52;;
30133;SDS011;16946;49.984;10.672;2024-03-08T00:53:40;19.13;;;13.30;;
30133;SDS011;16946;49.984;10.672;2024-03-08T00:54:11;19.63;;;13.67;;
30133;SDS011;16946;49.984;10.672;2024-03-08T00:54:42;17.67;;;13.40;;
30133;SDS011;16946;49.984;10.672;2024-03-08T00:55:13;20.45;;;14.10;;
30133;SDS011;16946;49.984;10.672;2024-03-08T00:55:43;16.77;;;14.13;;
30133;SDS011;16946;49.984;10.672;2024-03-08T00:56:16;21.45;;;14.60;;
30133;SDS011;16946;49.984;10.672;2024-03-08T00:56:46;18.50;;;13.93;;
30133;SDS011;16946;49.984;10.672;2024-03-08T00:57:17;20.23;;;15.00;;
30133;SDS011;16946;49.984;10.672;2024-03-08T00:57:47;23.30;;;14.73;;
30133;SDS011;16946;49.984;10.672;2024-03-08T00:58:18;20.83;;;14.13;;
30133;SDS011;16946;49.984;10.672;2024-03-08T00:58:49;19.98;;;13.85;;
30133;SDS011;16946;49.984;10.672;2024-03-08T00:59:20;17.43;;;13.90;;
30133;SDS011;16946;49.984;10.672;2024-03-08T00:59:50;19.20;;;15.03;;
30133;SDS011;16946;49.984;10.672;2024-03-08T01:00:21;19.90;;;14.60;;
30133;SDS011;16946;49.984;10.672;2024-03-08T01:00:51;16.13;;;13.13;;
30133;SDS011;16946;49.984;10.672;2024-03-08T01:01:22;19.27;;;13.43;;
30133;SDS011;16946;49.984;10.672;2024-03-08T01:01:52;20.00;;;14.40;;
30133;SDS011;16946;49.984;10.672;2024-03-08T01:02:23;23.40;;;14.73;;
30133;SDS011;16946;49.984;10.672;2024-03-08T01:02:53;20.53;;;15.00;;
30133;SDS011;16946;49.984;10.672;2024-03-08T01:03:24;16.30;;;13.67;;
30133;SDS011;16946;49.984;10.672;2024-03-08T01:03:54;16.90;;;14.40;;
30133;SDS011;16946;49.984;10.672;2024-03-08T01:04:25;17.27;;;13.50;;
30133;SDS011;16946;49.984;10.672;2024-03-08T01:04:58;20.70;;;14.45;;
30133;SDS011;16946;49.984;10.672;2024-03-08T01:05:29;22.35;;;14.98;;
30133;SDS011;16946;49.984;10.672;2024-03-08T01:05:59;20.87;;;14.83;;
30133;SDS011;16946;49.984;10.672;2024-03-08T01:06:33;19.52;;;14.30;;
30133;SDS011;16946;49.984;10.672;2024-03-08T01:07:04;25.40;;;14.57;;
30133;SDS011;16946;49.984;10.672;2024-03-08T01:07:35;17.25;;;13.93;;
30133;SDS011;16946;49.984;10.672;2024-03-08T01:08:06;19.30;;;13.83;;
30133;SDS011;16946;49.984;10.672;2024-03-08T01:08:37;20.55;;;14.20;;
30133;SDS011;16946;49.984;10.672;2024-03-08T01:09:08;17.97;;;14.30;;
30133;SDS011;16946;49.984;10.672;2024-03-08T01:09:39;19.80;;;14.17;;
30133;SDS011;16946;49.984;10.672;2024-03-08T01:10:09;16.37;;;14.17;;
30133;SDS011;16946;49.984;10.672;2024-03-08T01:10:40;24.93;;;14.47;;
30133;SDS011;16946;49.984;10.672;2024-03-08T01:11:12;20.07;;;14.77;;
30133;SDS011;16946;49.984;10.672;2024-03-08T01:11:44;25.00;;;14.88;;
30133;SDS011;16946;49.984;10.672;2024-03-08T01:12:14;19.85;;;14.40;;
30133;SDS011;16946;49.984;10.672;2024-03-08T01:12:45;19.77;;;15.20;;
30133;SDS011;16946;49.984;10.672;2024-03-08T01:13:16;20.47;;;14.47;;
30133;SDS011;16946;49.984;10.672;2024-03-08T01:13:46;21.53;;;15.00;;
30133;SDS011;16946;49.984;10.672;2024-03-08T01:14:17;17.40;;;14.33;;
30133;SDS011;16946;49.984;10.672;2024-03-08T01:14:47;17.93;;;14.27;;
30133;SDS011;16946;49.984;10.672;2024-03-08T01:15:18;18.97;;;13.63;;
30133;SDS011;16946;49.984;10.672;2024-03-08T01:15:49;21.27;;;14.65;;
30133;SDS011;16946;49.984;10.672;2024-03-08T01:16:20;20.43;;;15.47;;
30133;SDS011;16946;49.984;10.672;2024-03-08T01:16:51;19.27;;;14.65;;
30133;SDS011;16946;49.984;10.672;2024-03-08T01:17:22;19.80;;;14.87;;
30133;SDS011;16946;49.984;10.672;2024-03-08T01:17:52;21.13;;;15.57;;
30133;SDS011;16946;49.984;10.672;2024-03-08T01:18:22;23.53;;;15.80;;
30133;SDS011;16946;49.984;10.672;2024-03-08T01:18:53;17.87;;;14.60;;
30133;SDS011;16946;49.984;10.672;2024-03-08T01:19:24;23.47;;;14.83;;
30133;SDS011;16946;49.984;10.672;2024-03-08T01:19:54;19.90;;;16.03;;
30133;SDS011;16946;49.984;10.672;2024-03-08T01:20:25;17.90;;;14.47;;
30133;SDS011;16946;49.984;10.672;2024-03-08T01:20:55;20.70;;;15.47;;
30133;SDS011;16946;49.984;10.672;2024-03-08T01:21:26;24.43;;;15.73;;
30133;SDS011;16946;49.984;10.672;2024-03-08T01:21:56;21.00;;;15.57;;
30133;SDS011;16946;49.984;10.672;2024-03-08T01:22:27;27.50;;;16.27;;
30133;SDS011;16946;49.984;10.672;2024-03-08T01:22:59;22.15;;;15.77;;
30133;SDS011;16946;49.984;10.672;2024-03-08T01:23:30;18.77;;;15.40;;
30133;SDS011;16946;49.984;10.672;2024-03-08T01:24:01;21.52;;;15.15;;
30133;SDS011;16946;49.984;10.672;2024-03-08T01:24:32;21.38;;;14.25;;
30133;SDS011;16946;49.984;10.672;2024-03-08T01:25:04;19.10;;;14.73;;
30133;SDS011;16946;49.984;10.672;2024-03-08T01:25:35;20.13;;;15.30;;
30133;SDS011;16946;49.984;10.672;2024-03-08T01:26:06;22.63;;;15.23;;
30133;SDS011;16946;49.984;10.672;2024-03-08T01:26:36;25.60;;;15.03;;
30133;SDS011;16946;49.984;10.672;2024-03-08T01:27:07;23.13;;;15.60;;
30133;SDS011;16946;49.984;10.672;2024-03-08T01:27:39;25.88;;;15.70;;
30133;SDS011;16946;49.984;10.672;2024-03-08T01:28:09;16.47;;;14.00;;
30133;SDS011;16946;49.984;10.672;2024-03-08T01:28:40;20.67;;;16.27;;
30133;SDS011;16946;49.984;10.672;2024-03-08T01:29:10;18.37;;;15.47;;
30133;SDS011;16946;49.984;10.672;2024-03-08T01:29:41;20.97;;;15.10;;
30133;SDS011;16946;49.984;10.672;2024-03-08T01:30:12;19.00;;;15.10;;
30133;SDS011;16946;49.984;10.672;2024-03-08T01:30:42;19.17;;;15.03;;
30133;SDS011;16946;49.984;10.672;2024-03-08T01:31:14;21.67;;;15.73;;
30133;SDS011;16946;49.984;10.672;2024-03-08T01:31:45;21.08;;;16.75;;
30133;SDS011;16946;49.984;10.672;2024-03-08T01:32:16;22.67;;;15.93;;
30133;SDS011;16946;49.984;10.672;2024-03-08T01:32:47;25.43;;;17.23;;
30133;SDS011;16946;49.984;10.672;2024-03-08T01:33:17;21.93;;;15.97;;
30133;SDS011;16946;49.984;10.672;2024-03-08T01:33:48;18.80;;;15.87;;
30133;SDS011;16946;49.984;10.672;2024-03-08T01:34:20;22.13;;;16.02;;
30133;SDS011;16946;49.984;10.672;2024-03-08T01:34:50;23.53;;;16.17;;
30133;SDS011;16946;49.984;10.672;2024-03-08T01:35:21;22.63;;;15.97;;
30133;SDS011;16946;49.984;10.672;2024-03-08T01:35:52;20.00;;;16.33;;
30133;SDS011;16946;49.984;10.672;2024-03-08T01:36:23;20.08;;;15.40;;
30133;SDS011;16946;49.984;10.672;2024-03-08T01:36:54;24.08;;;16.33;;
30133;SDS011;16946;49.984;10.672;2024-03-08T01:37:28;21.05;;;15.70;;
30133;SDS011;16946;49.984;10.672;2024-03-08T01:37:59;24.88;;;16.10;;
30133;SDS011;16946;49.984;10.672;2024-03-08T01:38:30;27.30;;;16.93;;
30133;SDS011;16946;49.984;10.672;2024-03-08T01:39:00;21.87;;;15.83;;
30133;SDS011;16946;49.984;10.672;2024-03-08T01:39:31;27.33;;;16.97;;
30133;SDS011;16946;49.984;10.672;2024-03-08T01:40:02;24.33;;;15.98;;
30133;SDS011;16946;49.984;10.672;2024-03-08T01:40:33;22.25;;;15.90;;
30133;SDS011;16946;49.984;10.672;2024-03-08T01:41:03;19.33;;;16.00;;
30133;SDS011;16946;49.984;10.672;2024-03-08T01:41:34;22.77;;;16.57;;
30133;SDS011;16946;49.984;10.672;2024-03-08T01:42:05;21.67;;;15.80;;
30133;SDS011;16946;49.984;10.672;2024-03-08T01:42:36;20.83;;;15.70;;
30133;SDS011;16946;49.984;10.672;2024-03-08T01:43:17;22.00;;;14.82;;
30133;SDS011;16946;49.984;10.672;2024-03-08T01:43:52;19.65;;;15.45;;
30133;SDS011;16946;49.984;10.672;2024-03-08T01:44:23;18.08;;;14.90;;
30133;SDS011;16946;49.984;10.672;2024-03-08T01:44:54;24.45;;;15.68;;
30133;SDS011;16946;49.984;10.672;2024-03-08T01:45:24;23.07;;;15.57;;
30133;SDS011;16946;49.984;10.672;2024-03-08T01:45:56;20.40;;;15.87;;
30133;SDS011;16946;49.984;10.672;2024-03-08T01:46:30;20.05;;;14.65;;
30133;SDS011;16946;49.984;10.672;2024-03-08T01:47:01;24.83;;;15.87;;
30133;SDS011;16946;49.984;10.672;2024-03-08T01:47:32;20.93;;;15.30;;
30133;SDS011;16946;49.984;10.672;2024-03-08T01:48:03;25.63;;;16.27;;
30133;SDS011;16946;49.984;10.672;2024-03-08T01:48:34;23.90;;;16.40;;
30133;SDS011;16946;49.984;10.672;2024-03-08T01:49:06;25.65;;;16.85;;
30133;SDS011;16946;49.984;10.672;2024-03-08T01:49:38;24.27;;;16.60;;
30133;SDS011;16946;49.984;10.672;2024-03-08T01:50:09;21.52;;;16.05;;
30133;SDS011;16946;49.984;10.672;2024-03-08T01:50:40;23.73;;;17.13;;
30133;SDS011;16946;49.984;10.672;2024-03-08T01:51:11;22.37;;;16.37;;
30133;SDS011;16946;49.984;10.672;2024-03-08T01:51:44;23.17;;;15.98;;
30133;SDS011;16946;49.984;10.672;2024-03-08T01:52:16;21.23;;;16.50;;
30133;SDS011;16946;49.984;10.672;2024-03-08T01:52:49;23.13;;;16.73;;
30133;SDS011;16946;49.984;10.672;2024-03-08T01:53:19;20.73;;;15.40;;
30133;SDS011;16946;49.984;10.672;2024-03-08T01:53:50;18.57;;;15.33;;
30133;SDS011;16946;49.984;10.672;2024-03-08T01:54:21;28.47;;;16.30;;
30133;SDS011;16946;49.984;10.672;2024-03-08T01:54:53;22.88;;;16.55;;
30133;SDS011;16946;49.984;10.672;2024-03-08T01:55:24;23.47;;;16.70;;
30133;SDS011;16946;49.984;10.672;2024-03-08T01:55:56;23.20;;;16.67;;
30133;SDS011;16946;49.984;10.672;2024-03-08T01:56:28;21.90;;;15.88;;
30133;SDS011;16946;49.984;10.672;2024-03-08T01:56:59;24.70;;;17.05;;
30133;SDS011;16946;49.984;10.672;2024-03-08T01:57:30;24.27;;;16.67;;
30133;SDS011;16946;49.984;10.672;2024-03-08T01:58:04;22.13;;;15.90;;
30133;SDS011;16946;49.984;10.672;2024-03-08T01:58:35;22.95;;;15.40;;
30133;SDS011;16946;49.984;10.672;2024-03-08T01:59:05;20.33;;;15.13;;
30133;SDS011;16946;49.984;10.672;2024-03-08T01:59:37;20.55;;;16.42;;
30133;SDS011;16946;49.984;10.672;2024-03-08T02:00:09;21.52;;;15.77;;
30133;SDS011;16946;49.984;10.672;2024-03-08T02:00:40;23.50;;;16.17;;
30133;SDS011;16946;49.984;10.672;2024-03-08T02:01:13;23.77;;;16.20;;
30133;SDS011;16946;49.984;10.672;2024-03-08T02:01:45;25.05;;;16.95;;
30133;SDS011;16946;49.984;10.672;2024-03-08T02:02:15;23.33;;;16.57;;
30133;SDS011;16946;49.984;10.672;2024-03-08T02:02:49;22.70;;;16.95;;
30133;SDS011;16946;49.984;10.672;2024-03-08T02:03:23;24.40;;;16.33;;
30133;SDS011;16946;49.984;10.672;2024-03-08T02:03:55;22.48;;;16.25;;
30133;SDS011;16946;49.984;10.672;2024-03-08T02:04:25;23.50;;;16.73;;
30133;SDS011;16946;49.984;10.672;2024-03-08T02:04:56;22.70;;;15.70;;
30133;SDS011;16946;49.984;10.672;2024-03-08T02:05:27;24.90;;;16.02;;
30133;SDS011;16946;49.984;10.672;2024-03-08T02:05:58;21.53;;;16.50;;
30133;SDS011;16946;49.984;10.672;2024-03-08T02:06:31;23.40;;;15.35;;
30133;SDS011;16946;49.984;10.672;2024-03-08T02:07:01;19.00;;;14.93;;
30133;SDS011;16946;49.984;10.672;2024-03-08T02:07:35;22.67;;;16.33;;
30133;SDS011;16946;49.984;10.672;2024-03-08T02:08:06;20.23;;;15.55;;
30133;SDS011;16946;49.984;10.672;2024-03-08T02:08:37;22.80;;;16.67;;
30133;SDS011;16946;49.984;10.672;2024-03-08T02:09:08;23.97;;;16.43;;
30133;SDS011;16946;49.984;10.672;2024-03-08T02:09:39;22.47;;;16.13;;
30133;SDS011;16946;49.984;10.672;2024-03-08T02:10:09;24.00;;;16.03;;
30133;SDS011;16946;49.984;10.672;2024-03-08T02:10:43;21.52;;;16.15;;
30133;SDS011;16946;49.984;10.672;2024-03-08T02:11:14;22.65;;;16.13;;
30133;SDS011;16946;49.984;10.672;2024-03-08T02:11:45;19.25;;;14.43;;
30133;SDS011;16946;49.984;10.672;2024-03-08T02:12:16;19.97;;;15.70;;
30133;SDS011;16946;49.984;10.672;2024-03-08T02:12:46;24.47;;;17.03;;
30133;SDS011;16946;49.984;10.672;2024-03-08T02:13:18;21.13;;;15.55;;
30133;SDS011;16946;49.984;10.672;2024-03-08T02:13:48;20.90;;;16.03;;
30133;SDS011;16946;49.984;10.672;2024-03-08T02:14:19;22.33;;;15.30;;
30133;SDS011;16946;49.984;10.672;2024-03-08T02:14:50;22.53;;;15.67;;
30133;SDS011;16946;49.984;10.672;2024-03-08T02:15:20;22.73;;;15.87;;
30133;SDS011;16946;49.984;10.672;2024-03-08T02:16:25;22.08;;;15.43;;
30133;SDS011;16946;49.984;10.672;2024-03-08T02:16:56;25.63;;;15.60;;
30133;SDS011;16946;49.984;10.672;2024-03-08T02:17:30;17.23;;;15.40;;
30133;SDS011;16946;49.984;10.672;2024-03-08T02:18:01;20.63;;;15.63;;
30133;SDS011;16946;49.984;10.672;2024-03-08T02:18:32;22.27;;;16.13;;
30133;SDS011;16946;49.984;10.672;2024-03-08T02:19:04;20.02;;;15.75;;
30133;SDS011;16946;49.984;10.672;2024-03-08T02:19:36;22.70;;;16.52;;
30133;SDS011;16946;49.984;10.672;2024-03-08T02:20:07;20.67;;;15.20;;
30133;SDS011;16946;49.984;10.672;2024-03-08T02:20:39;24.30;;;15.73;;
30133;SDS011;16946;49.984;10.672;2024-03-08T02:21:09;19.17;;;15.70;;
30133;SDS011;16946;49.984;10.672;2024-03-08T02:21:40;24.53;;;15.57;;
30133;SDS011;16946;49.984;10.672;2024-03-08T02:22:11;21.77;;;16.67;;
30133;SDS011;16946;49.984;10.672;2024-03-08T02:22:41;21.37;;;16.30;;
30133;SDS011;16946;49.984;10.672;2024-03-08T02:23:12;22.95;;;16.70;;
30133;SDS011;16946;49.984;10.672;2024-03-08T02:23:44;22.40;;;16.27;;
30133;SDS011;16946;49.984;10.672;2024-03-08T02:24:15;23.98;;;16.10;;
30133;SDS011;16946;49.984;10.672;2024-03-08T02:24:45;17.47;;;14.27;;
30133;SDS011;16946;49.984;10.672;2024-03-08T02:25:16;23.27;;;16.27;;
30133;SDS011;16946;49.984;10.672;2024-03-08T02:25:48;24.23;;;16.05;;
30133;SDS011;16946;49.984;10.672;2024-03-08T02:26:19;20.38;;;15.70;;
30133;SDS011;16946;49.984;10.672;2024-03-08T02:26:49;19.60;;;14.87;;
30133;SDS011;16946;49.984;10.672;2024-03-08T02:27:23;22.60;;;15.57;;
30133;SDS011;16946;49.984;10.672;2024-03-08T02:27:55;21.88;;;14.82;;
30133;SDS011;16946;49.984;10.672;2024-03-08T02:28:25;19.67;;;15.57;;
30133;SDS011;16946;49.984;10.672;2024-03-08T02:28:56;19.80;;;14.83;;
30133;SDS011;16946;49.984;10.672;2024-03-08T02:29:26;22.87;;;15.10;;
30133;SDS011;16946;49.984;10.672;2024-03-08T02:29:57;24.97;;;15.93;;
30133;SDS011;16946;49.984;10.672;2024-03-08T02:30:28;20.53;;;14.67;;
30133;SDS011;16946;49.984;10.672;2024-03-08T02:30:59;21.52;;;15.02;;
30133;SDS011;16946;49.984;10.672;2024-03-08T02:31:30;24.33;;;14.27;;
30133;SDS011;16946;49.984;10.672;2024-03-08T02:32:01;17.05;;;14.13;;
30133;SDS011;16946;49.984;10.672;2024-03-08T02:32:31;20.90;;;14.73;;
30133;SDS011;16946;49.984;10.672;2024-03-08T02:33:02;21.55;;;14.80;;
30133;SDS011;16946;49.984;10.672;2024-03-08T02:33:34;26.88;;;16.38;;
30133;SDS011;16946;49.984;10.672;2024-03-08T02:34:04;18.90;;;14.87;;
30133;SDS011;16946;49.984;10.672;2024-03-08T02:34:35;17.27;;;14.20;;
30133;SDS011;16946;49.984;10.672;2024-03-08T02:35:05;22.27;;;15.83;;
30133;SDS011;16946;49.984;10.672;2024-03-08T02:35:36;24.17;;;16.00;;
30133;SDS011;16946;49.984;10.672;2024-03-08T02:36:07;20.60;;;14.53;;
30133;SDS011;16946;49.984;10.672;2024-03-08T02:36:37;22.57;;;16.00;;
30133;SDS011;16946;49.984;10.672;2024-03-08T02:37:08;20.15;;;15.88;;
30133;SDS011;16946;49.984;10.672;2024-03-08T02:37:39;21.20;;;14.90;;
30133;SDS011;16946;49.984;10.672;2024-03-08T02:38:09;21.37;;;16.87;;
30133;SDS011;16946;49.984;10.672;2024-03-08T02:38:40;21.80;;;15.40;;
30133;SDS011;16946;49.984;10.672;2024-03-08T02:39:11;20.52;;;15.43;;
30133;SDS011;16946;49.984;10.672;2024-03-08T02:39:42;19.17;;;14.67;;
30133;SDS011;16946;49.984;10.672;2024-03-08T02:40:13;20.73;;;15.00;;
30133;SDS011;16946;49.984;10.672;2024-03-08T02:40:44;27.02;;;16.33;;
30133;SDS011;16946;49.984;10.672;2024-03-08T02:41:16;19.77;;;14.75;;
30133;SDS011;16946;49.984;10.672;2024-03-08T02:41:46;21.27;;;15.47;;
30133;SDS011;16946;49.984;10.672;2024-03-08T02:42:16;19.97;;;15.57;;
30133;SDS011;16946;49.984;10.672;2024-03-08T02:42:47;20.93;;;15.30;;
30133;SDS011;16946;49.984;10.672;2024-03-08T02:43:18;22.83;;;14.77;;
30133;SDS011;16946;49.984;10.672;2024-03-08T02:43:52;20.30;;;15.63;;
30133;SDS011;16946;49.984;10.672;2024-03-08T02:44:22;26.30;;;16.60;;
30133;SDS011;16946;49.984;10.672;2024-03-08T02:44:53;20.77;;;15.53;;
30133;SDS011;16946;49.984;10.672;2024-03-08T02:45:23;22.53;;;16.27;;
30133;SDS011;16946;49.984;10.672;2024-03-08T02:45:54;21.83;;;15.87;;
30133;SDS011;16946;49.984;10.672;2024-03-08T02:46:25;26.37;;;16.30;;
30133;SDS011;16946;49.984;10.672;2024-03-08T02:46:55;20.63;;;15.33;;
30133;SDS011;16946;49.984;10.672;2024-03-08T02:47:26;22.33;;;16.50;;
30133;SDS011;16946;49.984;10.672;2024-03-08T02:47:56;31.80;;;16.87;;
30133;SDS011;16946;49.984;10.672;2024-03-08T02:48:27;22.40;;;16.80;;
30133;SDS011;16946;49.984;10.672;2024-03-08T02:48:57;21.87;;;16.80;;
30133;SDS011;16946;49.984;10.672;2024-03-08T02:49:28;20.93;;;15.70;;
30133;SDS011;16946;49.984;10.672;2024-03-08T02:49:59;26.40;;;17.47;;
30133;SDS011;16946;49.984;10.672;2024-03-08T02:50:31;23.23;;;16.30;;
30133;SDS011;16946;49.984;10.672;2024-03-08T02:51:02;23.87;;;18.27;;
30133;SDS011;16946;49.984;10.672;2024-03-08T02:51:33;22.23;;;16.42;;
30133;SDS011;16946;49.984;10.672;2024-03-08T02:52:05;24.45;;;17.67;;
30133;SDS011;16946;49.984;10.672;2024-03-08T02:52:37;25.27;;;17.23;;
30133;SDS011;16946;49.984;10.672;2024-03-08T02:53:08;23.07;;;17.03;;
30133;SDS011;16946;49.984;10.672;2024-03-08T02:53:39;26.38;;;17.80;;
30133;SDS011;16946;49.984;10.672;2024-03-08T02:54:10;26.30;;;18.10;;
30133;SDS011;16946;49.984;10.672;2024-03-08T02:54:40;22.47;;;16.43;;
30133;SDS011;16946;49.984;10.672;2024-03-08T02:55:11;24.60;;;17.30;;
30133;SDS011;16946;49.984;10.672;2024-03-08T02:55:45;23.77;;;17.52;;
30133;SDS011;16946;49.984;10.672;2024-03-08T02:56:16;22.13;;;17.05;;
30133;SDS011;16946;49.984;10.672;2024-03-08T02:56:47;26.43;;;17.33;;
30133;SDS011;16946;49.984;10.672;2024-03-08T02:57:20;23.50;;;16.58;;
30133;SDS011;16946;49.984;10.672;2024-03-08T02:57:50;25.90;;;17.00;;
30133;SDS011;16946;49.984;10.672;2024-03-08T02:58:21;23.10;;;16.90;;
30133;SDS011;16946;49.984;10.672;2024-03-08T02:58:52;21.83;;;16.87;;
30133;SDS011;16946;49.984;10.672;2024-03-08T02:59:23;31.23;;;17.83;;
30133;SDS011;16946;49.984;10.672;2024-03-08T02:59:53;25.57;;;18.33;;